sensor_id;sensor_type;location;lat;lon;timestamp;temperature;humidity
48206;DHT22;33995;48.202;16.260;2023-10-08T00:01:54;19.30;92.80
48206;DHT22;33995;48.202;16.260;2023-10-08T00:04:26;19.30;92.90
48206;DHT22;33995;48.202;16.260;2023-10-08T00:06:56;19.30;93.00
48206;DHT22;33995;48.202;16.260;2023-10-08T00:09:25;19.20;93.10
48206;DHT22;33995;48.202;16.260;2023-10-08T00:11:55;19.20;93.10
48206;DHT22;33995;48.202;16.260;2023-10-08T00:14:23;19.20;93.20
48206;DHT22;33995;48.202;16.260;2023-10-08T00:16:52;19.20;93.30
48206;DHT22;33995;48.202;16.260;2023-10-08T00:19:22;19.20;93.20
48206;DHT22;33995;48.202;16.260;2023-10-08T00:21:50;19.30;93.20
48206;DHT22;33995;48.202;16.260;2023-10-08T00:24:27;19.20;93.40
48206;DHT22;33995;48.202;16.260;2023-10-08T00:26:56;19.30;93.30
48206;DHT22;33995;48.202;16.260;2023-10-08T00:29:28;19.30;93.20
48206;DHT22;33995;48.202;16.260;2023-10-08T00:32:01;19.30;93.20
48206;DHT22;33995;48.202;16.260;2023-10-08T00:34:43;19.30;93.20
48206;DHT22;33995;48.202;16.260;2023-10-08T00:37:12;19.30;93.20
48206;DHT22;33995;48.202;16.260;2023-10-08T00:39:45;19.40;93.10
48206;DHT22;33995;48.202;16.260;2023-10-08T00:42:13;19.40;93.10
48206;DHT22;33995;48.202;16.260;2023-10-08T00:44:46;19.40;93.10
48206;DHT22;33995;48.202;16.260;2023-10-08T00:47:24;19.50;93.00
48206;DHT22;33995;48.202;16.260;2023-10-08T00:49:55;19.50;92.90
48206;DHT22;33995;48.202;16.260;2023-10-08T00:52:36;19.40;93.00
48206;DHT22;33995;48.202;16.260;2023-10-08T00:55:32;19.50;92.80
48206;DHT22;33995;48.202;16.260;2023-10-08T00:58:06;19.50;92.80
48206;DHT22;33995;48.202;16.260;2023-10-08T01:01:02;19.50;92.70
48206;DHT22;33995;48.202;16.260;2023-10-08T01:03:31;19.50;92.70
48206;DHT22;33995;48.202;16.260;2023-10-08T01:06:06;19.50;92.80
48206;DHT22;33995;48.202;16.260;2023-10-08T01:08:42;19.50;92.90
48206;DHT22;33995;48.202;16.260;2023-10-08T01:11:24;19.50;92.90
48206;DHT22;33995;48.202;16.260;2023-10-08T01:14:16;19.50;92.90
48206;DHT22;33995;48.202;16.260;2023-10-08T01:16:51;19.50;93.00
48206;DHT22;33995;48.202;16.260;2023-10-08T01:19:21;19.50;93.30
48206;DHT22;33995;48.202;16.260;2023-10-08T01:21:48;19.50;93.10
48206;DHT22;33995;48.202;16.260;2023-10-08T01:24:19;19.40;93.10
48206;DHT22;33995;48.202;16.260;2023-10-08T01:26:52;19.40;93.10
48206;DHT22;33995;48.202;16.260;2023-10-08T01:29:23;19.40;93.20
48206;DHT22;33995;48.202;16.260;2023-10-08T01:31:54;19.40;93.30
48206;DHT22;33995;48.202;16.260;2023-10-08T01:34:22;19.40;93.30
48206;DHT22;33995;48.202;16.260;2023-10-08T01:37:01;19.40;93.20
48206;DHT22;33995;48.202;16.260;2023-10-08T01:39:39;19.40;93.30
48206;DHT22;33995;48.202;16.260;2023-10-08T01:42:14;19.40;93.30
48206;DHT22;33995;48.202;16.260;2023-10-08T01:44:49;19.40;93.30
48206;DHT22;33995;48.202;16.260;2023-10-08T01:47:27;19.40;93.30
48206;DHT22;33995;48.202;16.260;2023-10-08T01:49:59;19.40;93.30
48206;DHT22;33995;48.202;16.260;2023-10-08T01:52:39;19.40;93.30
48206;DHT22;33995;48.202;16.260;2023-10-08T01:55:11;19.30;93.30
48206;DHT22;33995;48.202;16.260;2023-10-08T01:57:50;19.40;93.30
48206;DHT22;33995;48.202;16.260;2023-10-08T02:04:33;19.30;93.00
48206;DHT22;33995;48.202;16.260;2023-10-08T02:07:05;19.30;93.50
48206;DHT22;33995;48.202;16.260;2023-10-08T02:09:42;19.30;93.20
48206;DHT22;33995;48.202;16.260;2023-10-08T02:12:12;19.30;93.30
48206;DHT22;33995;48.202;16.260;2023-10-08T02:14:44;19.30;93.30
48206;DHT22;33995;48.202;16.260;2023-10-08T02:17:16;19.20;93.30
48206;DHT22;33995;48.202;16.260;2023-10-08T02:19:47;19.20;93.30
48206;DHT22;33995;48.202;16.260;2023-10-08T02:22:17;19.20;93.40
48206;DHT22;33995;48.202;16.260;2023-10-08T02:24:47;19.20;93.40
48206;DHT22;33995;48.202;16.260;2023-10-08T02:27:21;19.20;93.50
48206;DHT22;33995;48.202;16.260;2023-10-08T02:29:50;19.10;93.60
48206;DHT22;33995;48.202;16.260;2023-10-08T02:32:21;19.10;93.70
48206;DHT22;33995;48.202;16.260;2023-10-08T02:34:49;19.10;93.80
48206;DHT22;33995;48.202;16.260;2023-10-08T02:37:20;19.10;93.90
48206;DHT22;33995;48.202;16.260;2023-10-08T02:39:47;19.10;94.00
48206;DHT22;33995;48.202;16.260;2023-10-08T02:42:15;19.10;94.10
48206;DHT22;33995;48.202;16.260;2023-10-08T02:44:47;19.00;94.20
48206;DHT22;33995;48.202;16.260;2023-10-08T02:47:15;19.00;94.30
48206;DHT22;33995;48.202;16.260;2023-10-08T02:50:02;19.00;94.40
48206;DHT22;33995;48.202;16.260;2023-10-08T02:52:34;19.00;94.60
48206;DHT22;33995;48.202;16.260;2023-10-08T02:55:05;19.00;94.70
48206;DHT22;33995;48.202;16.260;2023-10-08T02:57:47;19.00;94.80
48206;DHT22;33995;48.202;16.260;2023-10-08T03:00:29;19.00;94.90
48206;DHT22;33995;48.202;16.260;2023-10-08T03:02:59;19.00;95.00
48206;DHT22;33995;48.202;16.260;2023-10-08T03:05:32;19.00;95.10
48206;DHT22;33995;48.202;16.260;2023-10-08T03:08:08;19.00;95.10
48206;DHT22;33995;48.202;16.260;2023-10-08T03:10:41;19.00;95.30
48206;DHT22;33995;48.202;16.260;2023-10-08T03:13:17;19.00;95.30
48206;DHT22;33995;48.202;16.260;2023-10-08T03:15:52;19.00;95.40
48206;DHT22;33995;48.202;16.260;2023-10-08T03:18:40;18.90;95.50
48206;DHT22;33995;48.202;16.260;2023-10-08T03:21:20;18.90;95.70
48206;DHT22;33995;48.202;16.260;2023-10-08T03:23:51;18.90;95.70
48206;DHT22;33995;48.202;16.260;2023-10-08T03:26:21;18.90;95.70
48206;DHT22;33995;48.202;16.260;2023-10-08T03:29:03;18.90;95.90
48206;DHT22;33995;48.202;16.260;2023-10-08T03:31:46;18.90;95.90
48206;DHT22;33995;48.202;16.260;2023-10-08T03:34:18;18.90;96.00
48206;DHT22;33995;48.202;16.260;2023-10-08T03:37:09;18.90;96.00
48206;DHT22;33995;48.202;16.260;2023-10-08T03:39:36;18.90;96.10
48206;DHT22;33995;48.202;16.260;2023-10-08T03:42:32;18.90;96.20
48206;DHT22;33995;48.202;16.260;2023-10-08T03:45:08;18.90;96.20
48206;DHT22;33995;48.202;16.260;2023-10-08T03:47:48;18.90;96.20
48206;DHT22;33995;48.202;16.260;2023-10-08T03:50:36;18.90;96.20
48206;DHT22;33995;48.202;16.260;2023-10-08T03:53:32;18.90;96.30
48206;DHT22;33995;48.202;16.260;2023-10-08T03:56:23;18.80;96.40
48206;DHT22;33995;48.202;16.260;2023-10-08T03:58:54;18.80;96.40
48206;DHT22;33995;48.202;16.260;2023-10-08T04:01:21;18.80;96.40
48206;DHT22;33995;48.202;16.260;2023-10-08T04:03:51;18.80;96.40
48206;DHT22;33995;48.202;16.260;2023-10-08T04:06:20;18.80;96.40
48206;DHT22;33995;48.202;16.260;2023-10-08T04:09:14;18.80;96.50
48206;DHT22;33995;48.202;16.260;2023-10-08T04:11:52;18.80;96.50
48206;DHT22;33995;48.202;16.260;2023-10-08T04:14:40;18.80;96.50
48206;DHT22;33995;48.202;16.260;2023-10-08T04:17:13;18.80;96.40
48206;DHT22;33995;48.202;16.260;2023-10-08T04:20:07;18.80;96.60
48206;DHT22;33995;48.202;16.260;2023-10-08T04:23:00;18.80;96.60
48206;DHT22;33995;48.202;16.260;2023-10-08T04:25:48;18.80;96.50
48206;DHT22;33995;48.202;16.260;2023-10-08T04:28:25;18.80;96.60
48206;DHT22;33995;48.202;16.260;2023-10-08T04:31:13;18.80;96.70
48206;DHT22;33995;48.202;16.260;2023-10-08T04:33:46;18.70;96.70
48206;DHT22;33995;48.202;16.260;2023-10-08T04:36:16;18.70;96.70
48206;DHT22;33995;48.202;16.260;2023-10-08T04:38:51;18.70;96.80
48206;DHT22;33995;48.202;16.260;2023-10-08T04:41:23;18.70;96.90
48206;DHT22;33995;48.202;16.260;2023-10-08T04:43:57;18.70;96.90
48206;DHT22;33995;48.202;16.260;2023-10-08T04:46:25;18.70;97.00
48206;DHT22;33995;48.202;16.260;2023-10-08T04:49:25;18.70;97.10
48206;DHT22;33995;48.202;16.260;2023-10-08T04:52:00;18.70;97.20
48206;DHT22;33995;48.202;16.260;2023-10-08T04:54:32;18.70;97.30
48206;DHT22;33995;48.202;16.260;2023-10-08T04:57:09;18.70;97.30
48206;DHT22;33995;48.202;16.260;2023-10-08T04:59:45;18.70;97.50
48206;DHT22;33995;48.202;16.260;2023-10-08T05:02:21;18.70;97.50
48206;DHT22;33995;48.202;16.260;2023-10-08T05:05:09;18.70;97.50
48206;DHT22;33995;48.202;16.260;2023-10-08T05:07:46;18.70;97.60
48206;DHT22;33995;48.202;16.260;2023-10-08T05:10:15;18.70;97.60
48206;DHT22;33995;48.202;16.260;2023-10-08T05:12:56;18.70;97.60
48206;DHT22;33995;48.202;16.260;2023-10-08T05:15:43;18.70;97.70
48206;DHT22;33995;48.202;16.260;2023-10-08T05:18:37;18.70;97.70
48206;DHT22;33995;48.202;16.260;2023-10-08T05:21:48;18.80;97.80
48206;DHT22;33995;48.202;16.260;2023-10-08T05:24:52;18.70;97.70
48206;DHT22;33995;48.202;16.260;2023-10-08T05:27:41;18.80;97.80
48206;DHT22;33995;48.202;16.260;2023-10-08T05:30:28;18.80;98.00
48206;DHT22;33995;48.202;16.260;2023-10-08T05:33:11;18.80;98.20
48206;DHT22;33995;48.202;16.260;2023-10-08T05:35:59;18.80;97.90
48206;DHT22;33995;48.202;16.260;2023-10-08T05:38:56;18.80;98.00
48206;DHT22;33995;48.202;16.260;2023-10-08T05:41:53;18.80;98.10
48206;DHT22;33995;48.202;16.260;2023-10-08T05:44:57;18.80;98.10
48206;DHT22;33995;48.202;16.260;2023-10-08T05:47:42;18.80;98.20
48206;DHT22;33995;48.202;16.260;2023-10-08T05:50:31;18.80;98.70
48206;DHT22;33995;48.202;16.260;2023-10-08T05:53:29;18.70;98.30
48206;DHT22;33995;48.202;16.260;2023-10-08T05:56:23;18.80;98.40
48206;DHT22;33995;48.202;16.260;2023-10-08T05:59:12;18.80;98.40
48206;DHT22;33995;48.202;16.260;2023-10-08T06:01:59;18.90;98.40
48206;DHT22;33995;48.202;16.260;2023-10-08T06:04:38;18.80;98.50
48206;DHT22;33995;48.202;16.260;2023-10-08T06:07:23;18.90;98.40
48206;DHT22;33995;48.202;16.260;2023-10-08T06:10:14;18.90;98.50
48206;DHT22;33995;48.202;16.260;2023-10-08T06:13:16;19.00;98.40
48206;DHT22;33995;48.202;16.260;2023-10-08T06:15:50;19.10;98.40
48206;DHT22;33995;48.202;16.260;2023-10-08T06:18:31;19.10;98.40
48206;DHT22;33995;48.202;16.260;2023-10-08T06:21:03;19.10;98.50
48206;DHT22;33995;48.202;16.260;2023-10-08T06:23:41;19.20;98.30
48206;DHT22;33995;48.202;16.260;2023-10-08T06:26:13;19.30;98.30
48206;DHT22;33995;48.202;16.260;2023-10-08T06:28:44;19.30;98.10
48206;DHT22;33995;48.202;16.260;2023-10-08T06:31:13;19.40;98.10
48206;DHT22;33995;48.202;16.260;2023-10-08T06:33:46;19.50;98.10
48206;DHT22;33995;48.202;16.260;2023-10-08T06:36:15;19.60;98.00
48206;DHT22;33995;48.202;16.260;2023-10-08T06:38:48;19.70;97.90
48206;DHT22;33995;48.202;16.260;2023-10-08T06:41:17;19.80;97.60
48206;DHT22;33995;48.202;16.260;2023-10-08T06:43:56;20.00;97.70
48206;DHT22;33995;48.202;16.260;2023-10-08T06:46:34;20.00;97.50
48206;DHT22;33995;48.202;16.260;2023-10-08T06:49:04;20.10;97.50
48206;DHT22;33995;48.202;16.260;2023-10-08T06:51:47;20.20;97.20
48206;DHT22;33995;48.202;16.260;2023-10-08T06:54:17;20.30;97.30
48206;DHT22;33995;48.202;16.260;2023-10-08T06:56:56;20.40;97.30
48206;DHT22;33995;48.202;16.260;2023-10-08T06:59:26;20.40;97.30
48206;DHT22;33995;48.202;16.260;2023-10-08T07:02:01;20.60;97.20
48206;DHT22;33995;48.202;16.260;2023-10-08T07:04:29;20.70;97.50
48206;DHT22;33995;48.202;16.260;2023-10-08T07:06:57;20.70;97.10
48206;DHT22;33995;48.202;16.260;2023-10-08T07:09:30;20.50;97.30
48206;DHT22;33995;48.202;16.260;2023-10-08T07:12:01;20.50;97.50
48206;DHT22;33995;48.202;16.260;2023-10-08T07:14:35;20.30;97.50
48206;DHT22;33995;48.202;16.260;2023-10-08T07:17:05;20.40;97.60
48206;DHT22;33995;48.202;16.260;2023-10-08T07:19:38;20.60;97.50
48206;DHT22;33995;48.202;16.260;2023-10-08T07:22:11;20.60;97.40
48206;DHT22;33995;48.202;16.260;2023-10-08T07:25:05;20.80;97.40
48206;DHT22;33995;48.202;16.260;2023-10-08T07:27:36;21.00;97.10
48206;DHT22;33995;48.202;16.260;2023-10-08T07:30:08;21.20;97.00
48206;DHT22;33995;48.202;16.260;2023-10-08T07:32:39;21.30;97.00
48206;DHT22;33995;48.202;16.260;2023-10-08T07:35:08;21.40;96.90
48206;DHT22;33995;48.202;16.260;2023-10-08T07:37:56;21.50;96.80
48206;DHT22;33995;48.202;16.260;2023-10-08T07:40:28;21.60;96.70
48206;DHT22;33995;48.202;16.260;2023-10-08T07:42:59;21.70;96.60
48206;DHT22;33995;48.202;16.260;2023-10-08T07:45:42;21.80;96.50
48206;DHT22;33995;48.202;16.260;2023-10-08T07:48:16;21.80;96.40
48206;DHT22;33995;48.202;16.260;2023-10-08T07:50:45;22.00;96.40
48206;DHT22;33995;48.202;16.260;2023-10-08T07:53:16;21.90;96.60
48206;DHT22;33995;48.202;16.260;2023-10-08T07:55:50;21.80;96.60
48206;DHT22;33995;48.202;16.260;2023-10-08T07:58:24;21.60;96.80
48206;DHT22;33995;48.202;16.260;2023-10-08T08:00:57;21.60;96.90
48206;DHT22;33995;48.202;16.260;2023-10-08T08:03:35;21.30;97.20
48206;DHT22;33995;48.202;16.260;2023-10-08T08:06:07;21.30;97.20
48206;DHT22;33995;48.202;16.260;2023-10-08T08:08:37;21.10;97.20
48206;DHT22;33995;48.202;16.260;2023-10-08T08:11:09;21.20;97.20
48206;DHT22;33995;48.202;16.260;2023-10-08T08:13:45;20.90;97.30
48206;DHT22;33995;48.202;16.260;2023-10-08T08:16:14;20.80;97.60
48206;DHT22;33995;48.202;16.260;2023-10-08T08:18:50;20.70;97.90
48206;DHT22;33995;48.202;16.260;2023-10-08T08:21:28;20.50;97.90
48206;DHT22;33995;48.202;16.260;2023-10-08T08:24:02;20.50;98.00
48206;DHT22;33995;48.202;16.260;2023-10-08T08:26:56;20.50;98.10
48206;DHT22;33995;48.202;16.260;2023-10-08T08:29:39;20.40;98.30
48206;DHT22;33995;48.202;16.260;2023-10-08T08:32:16;20.30;98.40
48206;DHT22;33995;48.202;16.260;2023-10-08T08:34:49;20.30;98.40
48206;DHT22;33995;48.202;16.260;2023-10-08T08:37:21;20.30;98.60
48206;DHT22;33995;48.202;16.260;2023-10-08T08:39:57;20.20;98.60
48206;DHT22;33995;48.202;16.260;2023-10-08T08:42:30;20.20;98.90
48206;DHT22;33995;48.202;16.260;2023-10-08T08:45:18;20.10;99.00
48206;DHT22;33995;48.202;16.260;2023-10-08T08:47:46;20.00;99.20
48206;DHT22;33995;48.202;16.260;2023-10-08T08:50:13;20.10;99.50
48206;DHT22;33995;48.202;16.260;2023-10-08T08:52:43;20.10;99.60
48206;DHT22;33995;48.202;16.260;2023-10-08T08:55:16;20.00;99.50
48206;DHT22;33995;48.202;16.260;2023-10-08T08:57:49;20.00;99.70
48206;DHT22;33995;48.202;16.260;2023-10-08T09:00:26;20.00;99.90
48206;DHT22;33995;48.202;16.260;2023-10-08T09:03:00;19.90;99.80
48206;DHT22;33995;48.202;16.260;2023-10-08T09:05:39;19.90;99.90
48206;DHT22;33995;48.202;16.260;2023-10-08T09:08:12;19.80;99.90
48206;DHT22;33995;48.202;16.260;2023-10-08T09:10:40;19.80;99.90
48206;DHT22;33995;48.202;16.260;2023-10-08T09:13:21;19.80;99.90
48206;DHT22;33995;48.202;16.260;2023-10-08T09:16:06;19.70;99.90
48206;DHT22;33995;48.202;16.260;2023-10-08T09:18:38;19.70;99.90
48206;DHT22;33995;48.202;16.260;2023-10-08T09:21:11;19.60;99.90
48206;DHT22;33995;48.202;16.260;2023-10-08T09:23:44;19.30;99.90
48206;DHT22;33995;48.202;16.260;2023-10-08T09:26:17;19.10;99.90
48206;DHT22;33995;48.202;16.260;2023-10-08T09:28:48;18.90;99.90
48206;DHT22;33995;48.202;16.260;2023-10-08T09:31:18;18.90;99.90
48206;DHT22;33995;48.202;16.260;2023-10-08T09:33:56;18.70;99.90
48206;DHT22;33995;48.202;16.260;2023-10-08T09:36:24;18.60;99.90
48206;DHT22;33995;48.202;16.260;2023-10-08T09:39:04;18.50;99.90
48206;DHT22;33995;48.202;16.260;2023-10-08T09:41:36;18.50;99.90
48206;DHT22;33995;48.202;16.260;2023-10-08T09:44:16;18.50;99.90
48206;DHT22;33995;48.202;16.260;2023-10-08T09:46:50;18.50;99.90
48206;DHT22;33995;48.202;16.260;2023-10-08T09:49:57;18.40;99.90
48206;DHT22;33995;48.202;16.260;2023-10-08T09:52:52;18.40;99.90
48206;DHT22;33995;48.202;16.260;2023-10-08T09:55:31;18.30;99.90
48206;DHT22;33995;48.202;16.260;2023-10-08T09:58:00;18.20;99.90
48206;DHT22;33995;48.202;16.260;2023-10-08T10:00:32;17.90;99.90
48206;DHT22;33995;48.202;16.260;2023-10-08T10:03:02;17.80;99.90
48206;DHT22;33995;48.202;16.260;2023-10-08T10:05:33;17.80;99.90
48206;DHT22;33995;48.202;16.260;2023-10-08T10:08:11;17.70;99.90
48206;DHT22;33995;48.202;16.260;2023-10-08T10:10:39;17.50;99.90
48206;DHT22;33995;48.202;16.260;2023-10-08T10:13:18;17.50;99.90
48206;DHT22;33995;48.202;16.260;2023-10-08T10:15:49;17.50;99.90
48206;DHT22;33995;48.202;16.260;2023-10-08T10:18:27;17.40;99.90
48206;DHT22;33995;48.202;16.260;2023-10-08T10:23:48;17.30;99.90
48206;DHT22;33995;48.202;16.260;2023-10-08T10:29:18;17.20;99.90
48206;DHT22;33995;48.202;16.260;2023-10-08T10:31:52;17.10;99.90
48206;DHT22;33995;48.202;16.260;2023-10-08T10:34:30;17.00;99.90
48206;DHT22;33995;48.202;16.260;2023-10-08T10:37:04;17.00;99.90
48206;DHT22;33995;48.202;16.260;2023-10-08T10:39:57;16.80;99.90
48206;DHT22;33995;48.202;16.260;2023-10-08T10:42:47;16.80;99.90
48206;DHT22;33995;48.202;16.260;2023-10-08T10:45:31;16.80;99.90
48206;DHT22;33995;48.202;16.260;2023-10-08T10:48:13;16.80;99.90
48206;DHT22;33995;48.202;16.260;2023-10-08T10:50:48;16.80;99.90
48206;DHT22;33995;48.202;16.260;2023-10-08T10:53:39;16.60;99.90
48206;DHT22;33995;48.202;16.260;2023-10-08T10:56:39;16.40;99.90
48206;DHT22;33995;48.202;16.260;2023-10-08T10:59:27;16.40;99.90
48206;DHT22;33995;48.202;16.260;2023-10-08T11:01:58;16.30;99.90
48206;DHT22;33995;48.202;16.260;2023-10-08T11:04:36;16.30;99.90
48206;DHT22;33995;48.202;16.260;2023-10-08T11:07:21;16.30;99.90
48206;DHT22;33995;48.202;16.260;2023-10-08T11:09:53;16.20;99.90
48206;DHT22;33995;48.202;16.260;2023-10-08T11:12:27;16.20;99.90
48206;DHT22;33995;48.202;16.260;2023-10-08T11:15:11;16.10;99.90
48206;DHT22;33995;48.202;16.260;2023-10-08T11:17:48;16.10;99.90
48206;DHT22;33995;48.202;16.260;2023-10-08T11:20:28;16.10;99.90
48206;DHT22;33995;48.202;16.260;2023-10-08T11:23:03;16.00;99.90
48206;DHT22;33995;48.202;16.260;2023-10-08T11:26:04;15.90;99.90
48206;DHT22;33995;48.202;16.260;2023-10-08T11:28:37;15.90;99.90
48206;DHT22;33995;48.202;16.260;2023-10-08T11:31:17;15.80;99.90
48206;DHT22;33995;48.202;16.260;2023-10-08T11:33:49;15.80;99.90
48206;DHT22;33995;48.202;16.260;2023-10-08T11:36:28;15.70;99.90
48206;DHT22;33995;48.202;16.260;2023-10-08T11:38:57;15.60;99.90
48206;DHT22;33995;48.202;16.260;2023-10-08T11:41:29;15.50;99.90
48206;DHT22;33995;48.202;16.260;2023-10-08T11:43:59;15.40;99.90
48206;DHT22;33995;48.202;16.260;2023-10-08T11:46:30;15.30;99.90
48206;DHT22;33995;48.202;16.260;2023-10-08T11:49:10;15.20;99.90
48206;DHT22;33995;48.202;16.260;2023-10-08T11:51:50;15.20;99.90
48206;DHT22;33995;48.202;16.260;2023-10-08T11:54:21;15.10;99.90
48206;DHT22;33995;48.202;16.260;2023-10-08T11:56:53;15.00;99.90
48206;DHT22;33995;48.202;16.260;2023-10-08T11:59:24;14.90;99.90
48206;DHT22;33995;48.202;16.260;2023-10-08T12:01:52;14.90;99.90
48206;DHT22;33995;48.202;16.260;2023-10-08T12:04:26;14.90;99.90
48206;DHT22;33995;48.202;16.260;2023-10-08T12:07:01;14.80;99.90
48206;DHT22;33995;48.202;16.260;2023-10-08T12:09:36;14.80;99.90
48206;DHT22;33995;48.202;16.260;2023-10-08T12:12:09;14.60;99.90
48206;DHT22;33995;48.202;16.260;2023-10-08T12:14:39;14.60;99.90
48206;DHT22;33995;48.202;16.260;2023-10-08T12:17:07;14.50;99.90
48206;DHT22;33995;48.202;16.260;2023-10-08T12:19:41;14.40;99.90
48206;DHT22;33995;48.202;16.260;2023-10-08T12:22:16;14.40;99.90
48206;DHT22;33995;48.202;16.260;2023-10-08T12:24:49;14.40;99.90
48206;DHT22;33995;48.202;16.260;2023-10-08T12:27:25;14.30;99.90
48206;DHT22;33995;48.202;16.260;2023-10-08T12:29:55;14.30;99.90
48206;DHT22;33995;48.202;16.260;2023-10-08T12:32:31;14.30;99.90
48206;DHT22;33995;48.202;16.260;2023-10-08T12:35:03;14.00;99.90
48206;DHT22;33995;48.202;16.260;2023-10-08T12:37:32;14.00;99.90
48206;DHT22;33995;48.202;16.260;2023-10-08T12:40:02;13.90;99.90
48206;DHT22;33995;48.202;16.260;2023-10-08T12:42:39;13.80;99.90
48206;DHT22;33995;48.202;16.260;2023-10-08T12:45:08;13.80;99.90
48206;DHT22;33995;48.202;16.260;2023-10-08T12:47:44;13.70;99.90
48206;DHT22;33995;48.202;16.260;2023-10-08T12:50:16;13.50;99.90
48206;DHT22;33995;48.202;16.260;2023-10-08T12:52:47;13.50;99.90
48206;DHT22;33995;48.202;16.260;2023-10-08T12:55:23;13.50;99.90
48206;DHT22;33995;48.202;16.260;2023-10-08T12:57:55;13.40;99.90
48206;DHT22;33995;48.202;16.260;2023-10-08T13:00:28;13.20;99.90
48206;DHT22;33995;48.202;16.260;2023-10-08T13:03:00;13.10;99.90
48206;DHT22;33995;48.202;16.260;2023-10-08T13:05:37;13.00;99.90
48206;DHT22;33995;48.202;16.260;2023-10-08T13:08:11;13.00;99.90
48206;DHT22;33995;48.202;16.260;2023-10-08T13:10:44;13.00;99.90
48206;DHT22;33995;48.202;16.260;2023-10-08T13:13:17;13.00;99.90
48206;DHT22;33995;48.202;16.260;2023-10-08T13:15:47;12.90;99.90
48206;DHT22;33995;48.202;16.260;2023-10-08T13:18:18;12.90;99.90
48206;DHT22;33995;48.202;16.260;2023-10-08T13:20:48;12.80;99.90
48206;DHT22;33995;48.202;16.260;2023-10-08T13:23:18;12.60;99.90
48206;DHT22;33995;48.202;16.260;2023-10-08T13:25:54;12.80;99.90
48206;DHT22;33995;48.202;16.260;2023-10-08T13:28:37;12.70;99.90
48206;DHT22;33995;48.202;16.260;2023-10-08T13:31:12;12.70;99.90
48206;DHT22;33995;48.202;16.260;2023-10-08T13:33:47;12.80;99.90
48206;DHT22;33995;48.202;16.260;2023-10-08T13:36:38;12.70;99.90
48206;DHT22;33995;48.202;16.260;2023-10-08T13:39:08;12.70;99.90
48206;DHT22;33995;48.202;16.260;2023-10-08T13:41:51;12.70;99.90
48206;DHT22;33995;48.202;16.260;2023-10-08T13:44:26;12.70;99.90
48206;DHT22;33995;48.202;16.260;2023-10-08T13:47:02;12.70;99.90
48206;DHT22;33995;48.202;16.260;2023-10-08T13:49:40;12.70;99.90
48206;DHT22;33995;48.202;16.260;2023-10-08T13:52:20;12.80;99.90
48206;DHT22;33995;48.202;16.260;2023-10-08T13:54:53;12.80;99.90
48206;DHT22;33995;48.202;16.260;2023-10-08T13:57:26;12.70;99.90
48206;DHT22;33995;48.202;16.260;2023-10-08T14:00:10;12.80;99.90
48206;DHT22;33995;48.202;16.260;2023-10-08T14:02:45;12.70;99.90
48206;DHT22;33995;48.202;16.260;2023-10-08T14:05:24;12.70;99.90
48206;DHT22;33995;48.202;16.260;2023-10-08T14:07:58;12.70;99.90
48206;DHT22;33995;48.202;16.260;2023-10-08T14:10:43;12.70;99.90
48206;DHT22;33995;48.202;16.260;2023-10-08T14:13:15;12.70;99.90
48206;DHT22;33995;48.202;16.260;2023-10-08T14:15:59;12.70;99.90
48206;DHT22;33995;48.202;16.260;2023-10-08T14:18:35;12.70;99.90
48206;DHT22;33995;48.202;16.260;2023-10-08T14:21:12;12.60;99.90
48206;DHT22;33995;48.202;16.260;2023-10-08T14:23:44;12.60;99.90
48206;DHT22;33995;48.202;16.260;2023-10-08T14:26:19;12.60;99.90
48206;DHT22;33995;48.202;16.260;2023-10-08T14:28:52;12.60;99.90
48206;DHT22;33995;48.202;16.260;2023-10-08T14:31:31;12.60;99.90
48206;DHT22;33995;48.202;16.260;2023-10-08T14:34:07;12.60;99.90
48206;DHT22;33995;48.202;16.260;2023-10-08T14:37:00;12.50;99.90
48206;DHT22;33995;48.202;16.260;2023-10-08T14:39:51;12.50;99.90
48206;DHT22;33995;48.202;16.260;2023-10-08T14:42:55;12.50;99.90
48206;DHT22;33995;48.202;16.260;2023-10-08T14:45:31;12.50;99.90
48206;DHT22;33995;48.202;16.260;2023-10-08T14:48:07;12.40;99.90
48206;DHT22;33995;48.202;16.260;2023-10-08T14:50:41;12.40;99.90
48206;DHT22;33995;48.202;16.260;2023-10-08T14:53:10;12.40;99.90
48206;DHT22;33995;48.202;16.260;2023-10-08T14:55:41;12.50;99.90
48206;DHT22;33995;48.202;16.260;2023-10-08T14:58:12;12.30;99.90
48206;DHT22;33995;48.202;16.260;2023-10-08T15:00:44;12.30;99.90
48206;DHT22;33995;48.202;16.260;2023-10-08T15:03:25;12.30;99.90
48206;DHT22;33995;48.202;16.260;2023-10-08T15:06:07;12.30;99.90
48206;DHT22;33995;48.202;16.260;2023-10-08T15:08:42;12.40;99.90
48206;DHT22;33995;48.202;16.260;2023-10-08T15:11:19;12.40;99.90
48206;DHT22;33995;48.202;16.260;2023-10-08T15:13:55;12.30;99.90
48206;DHT22;33995;48.202;16.260;2023-10-08T15:16:28;12.40;99.90
48206;DHT22;33995;48.202;16.260;2023-10-08T15:19:07;12.30;99.90
48206;DHT22;33995;48.202;16.260;2023-10-08T15:21:45;12.30;99.90
48206;DHT22;33995;48.202;16.260;2023-10-08T15:24:22;12.30;99.90
48206;DHT22;33995;48.202;16.260;2023-10-08T15:26:56;12.30;99.90
48206;DHT22;33995;48.202;16.260;2023-10-08T15:29:36;12.30;99.90
48206;DHT22;33995;48.202;16.260;2023-10-08T15:32:07;12.30;99.90
48206;DHT22;33995;48.202;16.260;2023-10-08T15:34:39;12.30;99.90
48206;DHT22;33995;48.202;16.260;2023-10-08T15:37:18;12.20;99.90
48206;DHT22;33995;48.202;16.260;2023-10-08T15:39:53;12.30;99.90
48206;DHT22;33995;48.202;16.260;2023-10-08T15:42:27;12.30;99.90
48206;DHT22;33995;48.202;16.260;2023-10-08T15:45:07;12.30;99.90
48206;DHT22;33995;48.202;16.260;2023-10-08T15:47:41;12.30;99.90
48206;DHT22;33995;48.202;16.260;2023-10-08T15:50:11;12.20;99.90
48206;DHT22;33995;48.202;16.260;2023-10-08T15:52:41;12.20;99.90
48206;DHT22;33995;48.202;16.260;2023-10-08T15:55:22;12.20;99.90
48206;DHT22;33995;48.202;16.260;2023-10-08T15:57:53;12.20;99.90
48206;DHT22;33995;48.202;16.260;2023-10-08T16:00:34;12.20;99.90
48206;DHT22;33995;48.202;16.260;2023-10-08T16:03:07;12.20;99.90
48206;DHT22;33995;48.202;16.260;2023-10-08T16:05:46;12.10;99.90
48206;DHT22;33995;48.202;16.260;2023-10-08T16:08:19;12.20;99.90
48206;DHT22;33995;48.202;16.260;2023-10-08T16:10:50;12.20;99.90
48206;DHT22;33995;48.202;16.260;2023-10-08T16:13:23;12.20;99.90
48206;DHT22;33995;48.202;16.260;2023-10-08T16:16:04;12.10;99.90
48206;DHT22;33995;48.202;16.260;2023-10-08T16:18:41;12.10;99.90
48206;DHT22;33995;48.202;16.260;2023-10-08T16:21:14;12.10;99.90
48206;DHT22;33995;48.202;16.260;2023-10-08T16:23:45;12.10;99.90